Time;durP1;ratioP1;P1;durP2;ratioP2;P2;SDS_P1;SDS_P2;PMS_P1;PMS_P2;Temp;Humidity;BMP_temperature;BMP_pressure;BME280_temperature;BME280_humidity;BME280_pressure;Samples;Min_cycle;Max_cycle;Signal;HPM_P1;HPM_P2
2021/06/17 00:01:40;;;;;;;15.18;5.00;;;;;;;;;;5138987;27;20031;-81
2021/06/17 00:04:06;;;;;;;14.13;4.35;;;;;;;;;;5138665;27;20213;-82
2021/06/17 00:06:32;;;;;;;11.15;4.63;;;;;;;;;;5138785;27;20031;-82
2021/06/17 00:08:58;;;;;;;9.32;4.88;;;;;;;;;;5139134;27;20029;-82
2021/06/17 00:12:01;;;;;;;10.48;4.38;;;;;;;;;;5138814;27;20019;-82
2021/06/17 00:14:32;;;;;;;36.42;5.13;;;;;;;;;;5137821;27;20096;-82
2021/06/17 00:16:59;;;;;;;8.50;4.20;;;;;;;;;;5138893;27;20032;-82
2021/06/17 00:19:26;;;;;;;13.05;4.45;;;;;;;;;;5137839;27;20408;-82
2021/06/17 00:21:53;;;;;;;22.95;4.70;;;;;;;;;;5139084;27;20080;-83
2021/06/17 00:24:19;;;;;;;9.50;4.03;;;;;;;;;;5137679;27;20404;-82
2021/06/17 00:26:45;;;;;;;7.07;4.20;;;;;;;;;;5137647;27;20063;-82
2021/06/17 00:29:11;;;;;;;10.15;3.95;;;;;;;;;;5138347;27;20027;-82
2021/06/17 00:31:39;;;;;;;7.63;3.63;;;;;;;;;;5137498;27;20110;-82
2021/06/17 00:34:08;;;;;;;7.20;4.32;;;;;;;;;;5138633;27;20030;-82
2021/06/17 00:36:34;;;;;;;6.18;3.75;;;;;;;;;;5138861;27;20112;-82
2021/06/17 00:39:00;;;;;;;7.63;4.10;;;;;;;;;;5138452;27;20023;-82
2021/06/17 00:44:30;;;;;;;9.15;4.35;;;;;;;;;;5138364;27;20072;-82
2021/06/17 00:46:56;;;;;;;9.43;4.53;;;;;;;;;;5136868;27;20035;-82
2021/06/17 00:49:22;;;;;;;14.05;4.35;;;;;;;;;;5137112;27;20053;-82
2021/06/17 00:51:48;;;;;;;10.18;4.82;;;;;;;;;;5138227;27;20031;-82
2021/06/17 00:54:31;;;;;;;8.82;4.13;;;;;;;;;;5137174;28;20019;-82
2021/06/17 00:57:17;;;;;;;12.93;4.50;;;;;;;;;;5137161;28;20030;-82
2021/06/17 00:59:43;;;;;;;8.32;4.07;;;;;;;;;;5137932;27;20027;-81
2021/06/17 01:02:09;;;;;;;10.02;4.43;;;;;;;;;;5136762;28;20031;-82
2021/06/17 01:04:35;;;;;;;8.27;4.20;;;;;;;;;;5138391;27;20049;-82
2021/06/17 01:07:01;;;;;;;7.85;4.57;;;;;;;;;;5136687;28;20062;-81
2021/06/17 01:09:27;;;;;;;6.82;4.10;;;;;;;;;;5138062;27;20059;-82
2021/06/17 01:12:02;;;;;;;11.38;4.25;;;;;;;;;;5138096;27;20419;-82
2021/06/17 01:14:34;;;;;;;8.48;4.07;;;;;;;;;;5138215;27;20354;-82
2021/06/17 01:17:03;;;;;;;8.85;4.43;;;;;;;;;;5137960;27;20035;-82
2021/06/17 01:19:32;;;;;;;10.80;4.10;;;;;;;;;;5137979;27;20027;-82
2021/06/17 01:21:58;;;;;;;9.57;4.97;;;;;;;;;;5137838;27;20024;-81
2021/06/17 01:24:24;;;;;;;7.28;4.47;;;;;;;;;;5138036;27;20027;-82
2021/06/17 01:26:53;;;;;;;9.38;4.72;;;;;;;;;;5137929;27;20030;-83
2021/06/17 01:29:22;;;;;;;9.27;4.40;;;;;;;;;;5137905;27;20064;-82
2021/06/17 01:31:49;;;;;;;7.97;4.43;;;;;;;;;;5137926;27;20015;-82
2021/06/17 01:34:15;;;;;;;12.88;4.05;;;;;;;;;;5138087;27;20110;-82
2021/06/17 01:36:47;;;;;;;10.18;4.35;;;;;;;;;;5137951;27;20281;-82
2021/06/17 01:39:15;;;;;;;8.35;4.40;;;;;;;;;;5138119;27;20019;-82
2021/06/17 01:42:18;;;;;;;41.85;6.15;;;;;;;;;;5137777;27;20027;-82
2021/06/17 01:44:45;;;;;;;8.50;4.60;;;;;;;;;;5136793;28;20024;-82
2021/06/17 01:47:12;;;;;;;7.35;5.03;;;;;;;;;;5137478;27;20046;-82
2021/06/17 01:49:40;;;;;;;9.32;4.60;;;;;;;;;;5137699;27;20031;-82
2021/06/17 01:52:07;;;;;;;15.10;4.53;;;;;;;;;;5136315;28;20059;-82
2021/06/17 01:54:34;;;;;;;6.53;4.05;;;;;;;;;;5137721;27;20064;-82
2021/06/17 01:57:00;;;;;;;8.57;4.50;;;;;;;;;;5138064;27;20356;-82
2021/06/17 01:59:29;;;;;;;9.60;4.78;;;;;;;;;;5140580;27;20113;-82
2021/06/17 02:01:58;;;;;;;9.15;4.43;;;;;;;;;;5141816;27;20027;-82
2021/06/17 02:04:25;;;;;;;11.65;4.68;;;;;;;;;;5141384;27;20058;-82
2021/06/17 02:06:51;;;;;;;7.72;4.13;;;;;;;;;;5141287;27;20068;-82
2021/06/17 02:09:17;;;;;;;11.43;4.03;;;;;;;;;;5141558;27;20313;-82
2021/06/17 02:11:43;;;;;;;7.30;4.35;;;;;;;;;;5141099;27;20022;-81
2021/06/17 02:14:13;;;;;;;9.23;4.65;;;;;;;;;;5141123;27;20038;-82
2021/06/17 02:16:40;;;;;;;9.68;3.95;;;;;;;;;;5141094;27;20027;-82
2021/06/17 02:19:07;;;;;;;6.75;4.40;;;;;;;;;;5141296;27;20042;-82
2021/06/17 02:21:33;;;;;;;6.63;4.88;;;;;;;;;;5140982;27;20034;-82
2021/06/17 02:24:00;;;;;;;10.07;5.00;;;;;;;;;;5141068;27;20027;-82
2021/06/17 02:29:31;;;;;;;6.95;4.53;;;;;;;;;;5140710;27;20439;-82
2021/06/17 02:31:58;;;;;;;12.00;4.90;;;;;;;;;;5139485;27;20035;-82
2021/06/17 02:34:25;;;;;;;8.27;4.32;;;;;;;;;;5140750;27;20102;-82
2021/06/17 02:36:51;;;;;;;12.20;4.97;;;;;;;;;;5140646;27;20380;-82
2021/06/17 02:39:20;;;;;;;11.43;4.60;;;;;;;;;;5140790;27;20019;-82
2021/06/17 02:41:49;;;;;;;9.88;4.57;;;;;;;;;;5140927;27;20366;-82
2021/06/17 02:44:15;;;;;;;11.77;4.53;;;;;;;;;;5140633;27;20291;-82
2021/06/17 02:46:42;;;;;;;12.82;5.38;;;;;;;;;;5139390;27;20401;-81
2021/06/17 02:49:08;;;;;;;11.43;5.55;;;;;;;;;;5140238;27;20080;-82
2021/06/17 02:51:35;;;;;;;12.18;4.63;;;;;;;;;;5140714;27;20150;-82
2021/06/17 02:54:01;;;;;;;10.38;4.82;;;;;;;;;;5140721;27;20346;-82
2021/06/17 02:56:30;;;;;;;10.48;5.35;;;;;;;;;;5140503;27;20030;-82
2021/06/17 02:59:08;;;;;;;18.58;5.88;;;;;;;;;;5140338;27;20027;-82
2021/06/17 03:01:43;;;;;;;12.27;5.10;;;;;;;;;;5140211;27;20027;-82
2021/06/17 03:04:13;;;;;;;6.53;4.78;;;;;;;;;;5140239;27;20030;-82
2021/06/17 03:06:40;;;;;;;11.68;5.03;;;;;;;;;;5140384;27;20448;-82
2021/06/17 03:09:16;;;;;;;12.65;5.07;;;;;;;;;;5139902;27;20034;-82
2021/06/17 03:11:45;;;;;;;10.07;5.32;;;;;;;;;;5121634;27;20035;-83
2021/06/17 03:14:16;;;;;;;9.65;4.90;;;;;;;;;;5140152;27;20083;-82
2021/06/17 03:16:44;;;;;;;11.15;5.50;;;;;;;;;;5139991;27;20027;-83
2021/06/17 03:19:11;;;;;;;9.75;5.07;;;;;;;;;;5140339;27;20114;-82
2021/06/17 03:21:40;;;;;;;8.57;4.80;;;;;;;;;;5140011;27;20023;-82
2021/06/17 03:24:07;;;;;;;11.38;5.30;;;;;;;;;;5139739;27;20462;-82
2021/06/17 03:26:35;;;;;;;10.18;5.53;;;;;;;;;;5139830;27;20038;-82
2021/06/17 03:29:02;;;;;;;10.15;5.07;;;;;;;;;;5139682;27;20031;-82
2021/06/17 03:31:28;;;;;;;9.43;5.40;;;;;;;;;;5139731;27;20068;-81
2021/06/17 03:33:55;;;;;;;13.52;5.70;;;;;;;;;;5139829;27;20033;-81
2021/06/17 03:36:22;;;;;;;9.52;5.15;;;;;;;;;;5138241;27;20078;-82
2021/06/17 03:38:49;;;;;;;9.93;5.55;;;;;;;;;;5139701;27;20019;-82
2021/06/17 03:41:16;;;;;;;9.85;5.57;;;;;;;;;;5139445;27;20027;-82
2021/06/17 03:43:43;;;;;;;11.00;5.32;;;;;;;;;;5139367;27;20102;-82
2021/06/17 03:46:10;;;;;;;10.68;4.88;;;;;;;;;;5138080;27;20061;-81
2021/06/17 03:48:39;;;;;;;15.35;5.28;;;;;;;;;;5139265;27;20051;-82
2021/06/17 03:51:07;;;;;;;11.63;5.43;;;;;;;;;;5139431;27;20038;-82
2021/06/17 03:53:33;;;;;;;13.65;5.85;;;;;;;;;;5139418;27;20026;-82
2021/06/17 03:56:26;;;;;;;12.80;6.13;;;;;;;;;;5139140;27;20019;-81
2021/06/17 03:58:53;;;;;;;11.18;5.00;;;;;;;;;;5120505;27;20031;-82
2021/06/17 04:01:21;;;;;;;8.85;5.40;;;;;;;;;;5139003;27;20026;-82
2021/06/17 04:03:48;;;;;;;9.73;5.57;;;;;;;;;;5139316;27;20159;-82
2021/06/17 04:06:17;;;;;;;10.10;5.40;;;;;;;;;;5139009;27;20023;-82
2021/06/17 04:08:49;;;;;;;10.73;6.07;;;;;;;;;;5138921;27;20031;-82
2021/06/17 04:11:33;;;;;;;11.05;6.05;;;;;;;;;;5120444;27;20027;-82
2021/06/17 04:14:00;;;;;;;8.43;5.53;;;;;;;;;;5139046;27;20026;-82
2021/06/17 04:16:28;;;;;;;12.25;5.18;;;;;;;;;;5138613;27;20038;-82
2021/06/17 04:18:55;;;;;;;12.05;5.88;;;;;;;;;;5139057;27;20050;-82
2021/06/17 04:21:22;;;;;;;14.18;5.47;;;;;;;;;;5138220;27;20023;-82
2021/06/17 04:23:54;;;;;;;7.60;5.28;;;;;;;;;;5138910;27;20019;-83
2021/06/17 04:26:21;;;;;;;11.35;5.63;;;;;;;;;;5138479;27;20031;-81
2021/06/17 04:28:48;;;;;;;7.65;4.90;;;;;;;;;;5138372;27;20064;-82
2021/06/17 04:31:14;;;;;;;8.18;4.75;;;;;;;;;;5138524;27;20090;-82
2021/06/17 04:33:42;;;;;;;9.85;4.70;;;;;;;;;;5138629;27;20094;-82
2021/06/17 04:36:08;;;;;;;7.15;4.70;;;;;;;;;;5138433;27;20397;-83
2021/06/17 04:38:34;;;;;;;10.10;4.88;;;;;;;;;;5138723;27;20417;-83
2021/06/17 04:41:01;;;;;;;9.35;5.05;;;;;;;;;;5120228;28;20035;-82
2021/06/17 04:43:27;;;;;;;12.40;4.90;;;;;;;;;;5138440;27;20314;-82
2021/06/17 04:45:54;;;;;;;15.65;7.05;;;;;;;;;;5138006;27;20417;-82
2021/06/17 04:48:23;;;;;;;16.98;8.73;;;;;;;;;;5119868;27;20047;-84
2021/06/17 04:50:50;;;;;;;12.73;7.78;;;;;;;;;;5120614;28;20405;-89
2021/06/17 04:53:17;;;;;;;9.48;6.40;;;;;;;;;;5120610;28;20027;-89
2021/06/17 04:55:48;;;;;;;17.10;6.32;;;;;;;;;;5139051;28;20076;-88
2021/06/17 05:01:42;;;;;;;13.77;7.00;;;;;;;;;;5139006;28;20092;-90
2021/06/17 05:04:09;;;;;;;15.02;6.80;;;;;;;;;;5120490;28;20034;-90
2021/06/17 05:06:38;;;;;;;13.88;7.00;;;;;;;;;;5138940;28;20027;-90
2021/06/17 05:11:51;;;;;;;14.23;6.65;;;;;;;;;;5138966;28;20031;-90
2021/06/17 05:14:17;;;;;;;15.00;6.30;;;;;;;;;;5139001;28;20024;-90
2021/06/17 05:16:43;;;;;;;13.73;6.05;;;;;;;;;;5138749;28;20042;-91
2021/06/17 05:19:09;;;;;;;14.68;6.53;;;;;;;;;;5120464;28;20409;-91
2021/06/17 05:21:35;;;;;;;10.98;5.57;;;;;;;;;;5138582;28;20023;-90
2021/06/17 05:24:01;;;;;;;12.95;6.45;;;;;;;;;;5138565;28;20384;-90
2021/06/17 05:32:35;;;;;;;16.30;6.47;;;;;;;;;;5141723;27;20031;-90
2021/06/17 05:35:01;;;;;;;14.95;6.20;;;;;;;;;;5142562;27;20024;-90
2021/06/17 05:37:27;;;;;;;10.05;5.97;;;;;;;;;;5124168;27;20023;-89
2021/06/17 05:39:53;;;;;;;12.20;6.18;;;;;;;;;;5124438;27;20030;-91
2021/06/17 05:42:19;;;;;;;12.13;6.45;;;;;;;;;;5142477;27;20027;-90
2021/06/17 05:44:46;;;;;;;14.68;5.68;;;;;;;;;;5142493;27;20027;-90
2021/06/17 05:47:13;;;;;;;13.70;6.80;;;;;;;;;;5142083;27;20035;-90
2021/06/17 05:49:39;;;;;;;7.68;5.82;;;;;;;;;;5142014;27;20091;-90
2021/06/17 05:52:05;;;;;;;12.93;6.18;;;;;;;;;;5142142;27;20027;-90
2021/06/17 05:54:32;;;;;;;13.75;6.68;;;;;;;;;;5123563;27;20031;-89
2021/06/17 05:56:58;;;;;;;26.08;6.40;;;;;;;;;;5123926;27;20022;-87
2021/06/17 05:59:24;;;;;;;9.77;6.57;;;;;;;;;;5142751;27;20023;-95
2021/06/17 06:01:50;;;;;;;14.73;6.50;;;;;;;;;;5142397;27;20039;-89
2021/06/17 06:04:17;;;;;;;11.82;7.03;;;;;;;;;;5125067;27;20385;-96
2021/06/17 06:06:43;;;;;;;15.05;7.20;;;;;;;;;;5142295;27;20106;-89
2021/06/17 06:09:09;;;;;;;8.57;6.00;;;;;;;;;;5123113;27;20031;-89
2021/06/17 06:15:16;;;;;;;9.85;6.72;;;;;;;;;;5144249;27;20026;-95
2021/06/17 06:17:42;;;;;;;9.98;6.35;;;;;;;;;;5141358;27;20024;-88
2021/06/17 06:20:09;;;;;;;12.32;6.30;;;;;;;;;;5141701;27;20423;-91
2021/06/17 06:22:35;;;;;;;10.13;5.63;;;;;;;;;;5123059;27;20027;-87
2021/06/17 06:25:02;;;;;;;9.15;5.53;;;;;;;;;;5141745;27;20046;-84
2021/06/17 06:30:32;;;;;;;10.20;5.57;;;;;;;;;;5141554;27;20446;-86
2021/06/17 06:32:58;;;;;;;10.70;5.60;;;;;;;;;;5141511;27;20023;-88
2021/06/17 06:35:25;;;;;;;11.52;5.03;;;;;;;;;;5141588;27;20023;-90
2021/06/17 06:37:51;;;;;;;12.93;5.15;;;;;;;;;;5123112;27;20029;-87
2021/06/17 06:40:18;;;;;;;8.55;4.95;;;;;;;;;;5141438;27;20065;-87
2021/06/17 06:45:47;;;;;;;8.38;4.72;;;;;;;;;;5141207;27;20120;-91
2021/06/17 06:48:13;;;;;;;10.02;6.05;;;;;;;;;;5140579;27;20075;-90
2021/06/17 06:50:40;;;;;;;8.07;5.20;;;;;;;;;;5140936;27;20046;-91
2021/06/17 06:53:06;;;;;;;10.23;3.90;;;;;;;;;;5122570;27;20031;-90
2021/06/17 06:55:33;;;;;;;7.38;4.03;;;;;;;;;;5141235;27;20034;-92
2021/06/17 06:57:59;;;;;;;9.90;3.80;;;;;;;;;;5122399;27;20078;-82
2021/06/17 07:00:25;;;;;;;12.88;3.88;;;;;;;;;;5140965;27;20317;-92
2021/06/17 07:02:51;;;;;;;6.03;4.00;;;;;;;;;;5141234;27;20039;-93
2021/06/17 07:05:17;;;;;;;11.00;3.67;;;;;;;;;;5140921;27;20030;-91
2021/06/17 07:07:43;;;;;;;5.43;4.05;;;;;;;;;;5141160;27;20096;-92
2021/06/17 07:10:10;;;;;;;5.85;3.20;;;;;;;;;;5140655;27;20034;-91
2021/06/17 07:12:37;;;;;;;4.88;2.70;;;;;;;;;;5141005;27;20038;-92
2021/06/17 07:15:03;;;;;;;7.60;3.33;;;;;;;;;;5116323;27;20027;-89
2021/06/17 07:17:29;;;;;;;5.68;2.90;;;;;;;;;;5131925;27;20035;-90
2021/06/17 07:19:56;;;;;;;4.97;3.22;;;;;;;;;;5140890;27;20054;-90
2021/06/17 07:22:25;;;;;;;7.40;3.20;;;;;;;;;;5140730;27;20020;-91
2021/06/17 07:24:55;;;;;;;9.20;2.67;;;;;;;;;;5140354;27;20031;-92
2021/06/17 07:27:22;;;;;;;10.65;3.22;;;;;;;;;;5140523;27;20035;-91
2021/06/17 07:29:48;;;;;;;4.05;2.88;;;;;;;;;;5140147;27;20059;-91
2021/06/17 07:32:14;;;;;;;8.27;3.38;;;;;;;;;;5140072;27;20019;-92
2021/06/17 07:34:42;;;;;;;6.70;2.80;;;;;;;;;;5140004;27;20023;-92
2021/06/17 07:37:08;;;;;;;8.00;3.05;;;;;;;;;;5140108;27;20024;-91
2021/06/17 07:39:34;;;;;;;7.28;3.25;;;;;;;;;;5140560;27;20034;-91
2021/06/17 07:42:00;;;;;;;7.47;3.00;;;;;;;;;;5141664;27;20027;-91
2021/06/17 07:44:33;;;;;;;6.70;3.33;;;;;;;;;;5139842;27;20043;-95
2021/06/17 07:46:59;;;;;;;8.52;3.67;;;;;;;;;;5140869;27;20058;-91
2021/06/17 07:49:25;;;;;;;9.20;3.35;;;;;;;;;;5140159;27;20400;-92
2021/06/17 07:51:51;;;;;;;5.93;3.20;;;;;;;;;;5129762;27;20023;-94
2021/06/17 07:54:18;;;;;;;12.80;3.45;;;;;;;;;;5142190;27;20469;-95
2021/06/17 08:05:21;;;;;;;11.77;3.20;;;;;;;;;;4939808;29;20047;-93
2021/06/17 08:07:47;;;;;;;8.68;2.90;;;;;;;;;;4941289;29;20063;-92
2021/06/17 08:10:13;;;;;;;7.32;3.05;;;;;;;;;;4941167;29;20031;-94
2021/06/17 08:12:39;;;;;;;5.03;2.80;;;;;;;;;;4940907;29;20047;-93
2021/06/17 08:15:06;;;;;;;8.70;2.58;;;;;;;;;;4940789;29;20040;-94
2021/06/17 08:17:32;;;;;;;5.68;3.03;;;;;;;;;;4946970;29;20326;-95
2021/06/17 08:20:14;;;;;;;4.47;2.50;;;;;;;;;;4951996;29;20027;-96
2021/06/17 08:22:49;;;;;;;5.55;3.15;;;;;;;;;;4952227;29;20028;-94
2021/06/17 08:25:15;;;;;;;3.97;2.10;;;;;;;;;;4931932;29;20032;-96
2021/06/17 08:27:41;;;;;;;2.50;2.20;;;;;;;;;;4948502;29;20035;-96
2021/06/17 08:30:12;;;;;;;4.30;2.25;;;;;;;;;;4949167;29;20032;-95
2021/06/17 08:32:39;;;;;;;5.70;2.30;;;;;;;;;;4945275;29;20032;-94
2021/06/17 08:35:05;;;;;;;4.43;2.42;;;;;;;;;;4942056;29;20071;-95
2021/06/17 08:37:32;;;;;;;4.57;2.20;;;;;;;;;;4940825;29;20150;-96
2021/06/17 08:39:58;;;;;;;4.72;2.13;;;;;;;;;;4940725;29;20035;-94
2021/06/17 08:42:28;;;;;;;6.35;2.33;;;;;;;;;;4937610;29;20035;-94
2021/06/17 08:44:55;;;;;;;4.70;2.00;;;;;;;;;;4959176;29;20074;-94
2021/06/17 08:47:21;;;;;;;4.35;2.40;;;;;;;;;;4942545;29;20019;-93
2021/06/17 08:49:51;;;;;;;7.78;2.65;;;;;;;;;;4958547;29;20062;-93
2021/06/17 08:52:18;;;;;;;5.82;2.15;;;;;;;;;;4958792;29;20062;-93
2021/06/17 08:54:44;;;;;;;3.35;2.25;;;;;;;;;;4958613;29;20083;-94
2021/06/17 08:57:10;;;;;;;5.20;2.20;;;;;;;;;;4959404;29;20034;-94
2021/06/17 08:59:40;;;;;;;7.90;2.45;;;;;;;;;;4959838;29;20035;-94
2021/06/17 09:02:06;;;;;;;9.98;2.20;;;;;;;;;;4958633;29;20036;-93
2021/06/17 09:04:33;;;;;;;4.30;2.13;;;;;;;;;;4959315;29;20186;-94
2021/06/17 09:07:04;;;;;;;15.05;2.03;;;;;;;;;;4961746;28;20026;-94
2021/06/17 09:09:38;;;;;;;5.63;2.30;;;;;;;;;;4962544;29;20074;-93
2021/06/17 09:12:05;;;;;;;2.63;1.67;;;;;;;;;;4963592;29;20028;-92
2021/06/17 09:14:31;;;;;;;5.13;2.13;;;;;;;;;;4962335;29;20085;-92
2021/06/17 09:16:59;;;;;;;5.40;1.92;;;;;;;;;;4964336;29;20409;-90
2021/06/17 09:19:45;;;;;;;19.08;2.25;;;;;;;;;;4964533;29;20031;-95
2021/06/17 09:22:12;;;;;;;43.70;3.88;;;;;;;;;;4962646;29;20031;-93
2021/06/17 09:24:39;;;;;;;4.53;2.00;;;;;;;;;;4963669;29;20034;-94
2021/06/17 09:27:22;;;;;;;3.92;2.55;;;;;;;;;;4962224;29;20027;-94
2021/06/17 09:29:48;;;;;;;4.93;2.03;;;;;;;;;;4962749;29;20031;-95
2021/06/17 09:32:28;;;;;;;4.32;2.00;;;;;;;;;;4963119;29;20030;-95
2021/06/17 09:34:55;;;;;;;5.03;2.45;;;;;;;;;;4963212;29;20051;-95
2021/06/17 09:37:34;;;;;;;3.92;1.85;;;;;;;;;;4963029;28;20112;-94
2021/06/17 09:40:21;;;;;;;3.58;2.15;;;;;;;;;;4963025;29;20024;-87
2021/06/17 09:42:47;;;;;;;6.72;2.45;;;;;;;;;;4962502;29;20480;-87
2021/06/17 09:45:18;;;;;;;8.30;2.25;;;;;;;;;;4945954;29;20047;-87
2021/06/17 09:47:45;;;;;;;4.57;2.43;;;;;;;;;;4942222;29;20056;-87
2021/06/17 09:50:21;;;;;;;4.47;2.38;;;;;;;;;;4942431;29;20278;-88
2021/06/17 09:52:48;;;;;;;5.30;2.40;;;;;;;;;;4942200;29;20039;-84
2021/06/17 09:55:34;;;;;;;7.13;2.83;;;;;;;;;;4941706;29;20027;-84
2021/06/17 09:58:00;;;;;;;2.35;2.00;;;;;;;;;;4942793;29;20059;-84
2021/06/17 10:00:26;;;;;;;2.92;2.35;;;;;;;;;;4942805;29;20088;-84
2021/06/17 10:02:52;;;;;;;4.07;2.65;;;;;;;;;;4941383;29;20415;-85
2021/06/17 10:05:21;;;;;;;5.43;2.97;;;;;;;;;;4950389;29;20065;-87
2021/06/17 10:07:47;;;;;;;29.58;24.75;;;;;;;;;;4960995;29;20023;-85
2021/06/17 10:10:14;;;;;;;5.60;4.43;;;;;;;;;;4956531;29;20031;-86
2021/06/17 10:12:41;;;;;;;5.50;4.90;;;;;;;;;;4942990;29;20079;-84
2021/06/17 10:15:09;;;;;;;10.93;3.67;;;;;;;;;;4941677;29;20136;-84
2021/06/17 10:17:36;;;;;;;5.40;4.10;;;;;;;;;;4941615;29;20028;-85
2021/06/17 10:20:04;;;;;;;10.32;4.38;;;;;;;;;;4942487;29;20043;-85
2021/06/17 10:22:37;;;;;;;6.65;4.60;;;;;;;;;;4942680;29;20082;-86
2021/06/17 10:25:03;;;;;;;3.88;2.38;;;;;;;;;;4942447;29;20030;-85
2021/06/17 10:27:31;;;;;;;6.38;2.85;;;;;;;;;;4941179;29;20032;-85
2021/06/17 10:29:57;;;;;;;7.22;2.50;;;;;;;;;;4942570;29;20032;-86
2021/06/17 10:32:57;;;;;;;3.00;2.30;;;;;;;;;;4942598;29;20027;-85
2021/06/17 10:35:29;;;;;;;3.55;2.28;;;;;;;;;;4921546;29;20067;-85
2021/06/17 10:38:06;;;;;;;8.43;2.60;;;;;;;;;;4921490;29;20364;-84
2021/06/17 10:40:35;;;;;;;5.20;2.33;;;;;;;;;;4921395;29;20047;-84
2021/06/17 10:46:04;;;;;;;4.43;2.47;;;;;;;;;;4921932;29;20082;-90
2021/06/17 10:48:56;;;;;;;3.53;2.40;;;;;;;;;;4921028;29;20326;-90
2021/06/17 10:51:22;;;;;;;4.45;2.38;;;;;;;;;;4919999;29;20035;-90
2021/06/17 10:53:50;;;;;;;3.45;2.13;;;;;;;;;;4921875;29;20469;-90
2021/06/17 10:56:23;;;;;;;3.95;2.10;;;;;;;;;;4921792;29;20048;-89
2021/06/17 10:58:50;;;;;;;2.97;2.20;;;;;;;;;;4921497;29;20042;-91
2021/06/17 11:01:49;;;;;;;3.83;2.35;;;;;;;;;;4921701;29;20027;-90
2021/06/17 11:04:30;;;;;;;2.40;2.15;;;;;;;;;;4883779;29;20063;-90
2021/06/17 11:06:56;;;;;;;8.65;2.45;;;;;;;;;;4883825;29;20052;-90
2021/06/17 11:09:39;;;;;;;3.25;2.42;;;;;;;;;;4883789;29;20056;-90
2021/06/17 11:12:13;;;;;;;4.05;2.28;;;;;;;;;;4896337;29;20036;-90
2021/06/17 11:14:43;;;;;;;6.80;2.45;;;;;;;;;;4901910;29;20068;-89
2021/06/17 11:17:33;;;;;;;3.95;2.38;;;;;;;;;;4890631;29;20077;-89
2021/06/17 11:20:03;;;;;;;4.03;2.35;;;;;;;;;;4886592;29;20068;-89
2021/06/17 11:22:35;;;;;;;4.70;2.35;;;;;;;;;;4886844;29;20036;-90
2021/06/17 11:25:11;;;;;;;4.00;2.13;;;;;;;;;;4902265;29;20033;-90
2021/06/17 11:27:54;;;;;;;5.80;2.22;;;;;;;;;;4902428;29;20060;-89
2021/06/17 11:30:20;;;;;;;2.38;2.10;;;;;;;;;;4902088;29;20062;-90
2021/06/17 11:32:49;;;;;;;4.63;2.30;;;;;;;;;;4901903;29;20070;-88
2021/06/17 11:35:23;;;;;;;2.97;2.17;;;;;;;;;;4903103;29;20037;-91
2021/06/17 11:37:50;;;;;;;4.07;2.40;;;;;;;;;;4886452;29;20039;-90
2021/06/17 11:40:18;;;;;;;4.20;2.40;;;;;;;;;;4926083;29;20094;-90
2021/06/17 11:42:44;;;;;;;3.72;2.35;;;;;;;;;;4960567;29;20063;-90
2021/06/17 11:45:10;;;;;;;4.47;2.75;;;;;;;;;;4960437;29;20027;-91
2021/06/17 11:47:47;;;;;;;6.40;2.70;;;;;;;;;;4960203;29;20139;-90
2021/06/17 11:50:13;;;;;;;5.75;2.30;;;;;;;;;;4960658;29;20031;-90
2021/06/17 11:52:40;;;;;;;6.30;2.83;;;;;;;;;;4960490;29;20023;-89
2021/06/17 11:55:07;;;;;;;4.85;2.47;;;;;;;;;;4960346;29;20025;-89
2021/06/17 11:57:39;;;;;;;4.65;2.38;;;;;;;;;;4960053;29;20038;-88
2021/06/17 12:00:06;;;;;;;5.57;2.63;;;;;;;;;;4943315;29;20031;-90
2021/06/17 12:02:33;;;;;;;5.78;2.63;;;;;;;;;;4960300;29;20035;-90
2021/06/17 12:04:59;;;;;;;7.50;2.83;;;;;;;;;;4943097;29;20055;-90
2021/06/17 12:07:28;;;;;;;7.32;2.65;;;;;;;;;;4960218;29;20038;-89
2021/06/17 12:09:56;;;;;;;5.38;2.70;;;;;;;;;;4959994;29;20410;-90
2021/06/17 12:12:24;;;;;;;5.45;2.38;;;;;;;;;;4960053;29;20326;-90
2021/06/17 12:14:56;;;;;;;4.22;2.53;;;;;;;;;;4960296;29;20027;-92
2021/06/17 12:17:48;;;;;;;6.47;2.50;;;;;;;;;;4960175;29;20054;-93
2021/06/17 12:20:16;;;;;;;4.35;2.58;;;;;;;;;;4959090;29;20031;-93
2021/06/17 12:22:44;;;;;;;7.55;2.63;;;;;;;;;;4959992;29;20323;-93
2021/06/17 12:25:11;;;;;;;6.18;2.53;;;;;;;;;;4943219;29;20038;-92
2021/06/17 12:27:41;;;;;;;4.57;2.13;;;;;;;;;;4959848;29;20019;-93
2021/06/17 12:30:26;;;;;;;2.95;2.20;;;;;;;;;;4959782;29;20035;-93
2021/06/17 12:32:52;;;;;;;6.28;2.78;;;;;;;;;;4959689;28;20028;-92
2021/06/17 12:35:18;;;;;;;3.75;2.10;;;;;;;;;;4959682;29;20031;-92
2021/06/17 12:37:52;;;;;;;4.13;1.90;;;;;;;;;;4959758;29;20023;-92
2021/06/17 12:40:28;;;;;;;3.22;1.80;;;;;;;;;;4942581;28;20046;-93
2021/06/17 12:43:05;;;;;;;3.47;1.65;;;;;;;;;;4956529;29;20050;-94
2021/06/17 12:45:31;;;;;;;2.15;1.92;;;;;;;;;;4945728;29;20036;-88
2021/06/17 12:48:04;;;;;;;3.67;1.95;;;;;;;;;;4941391;29;20026;-90
2021/06/17 12:53:15;;;;;;;3.20;1.90;;;;;;;;;;4940930;29;20125;-90
2021/06/17 12:55:41;;;;;;;3.97;2.10;;;;;;;;;;4939538;29;20051;-91
2021/06/17 12:58:12;;;;;;;5.00;2.35;;;;;;;;;;4939197;29;20035;-90
2021/06/17 13:00:38;;;;;;;3.97;1.85;;;;;;;;;;4940328;29;20024;-91
2021/06/17 13:03:04;;;;;;;5.47;2.05;;;;;;;;;;4939064;29;20024;-90
2021/06/17 13:05:41;;;;;;;3.40;2.40;;;;;;;;;;4940367;29;20052;-90
2021/06/17 13:08:11;;;;;;;2.92;2.20;;;;;;;;;;4923489;29;20373;-91
2021/06/17 13:10:44;;;;;;;6.18;2.30;;;;;;;;;;4940536;29;20035;-91
2021/06/17 13:13:17;;;;;;;5.72;2.17;;;;;;;;;;4940418;29;20030;-91
2021/06/17 13:15:44;;;;;;;8.00;2.35;;;;;;;;;;4940326;29;20351;-90
2021/06/17 13:18:11;;;;;;;3.92;1.90;;;;;;;;;;4940408;29;20020;-90
2021/06/17 13:20:38;;;;;;;4.63;2.05;;;;;;;;;;4940451;29;20028;-89
2021/06/17 13:23:15;;;;;;;4.68;2.40;;;;;;;;;;4940114;29;20036;-93
2021/06/17 13:25:43;;;;;;;5.47;1.98;;;;;;;;;;4923341;29;20123;-91
2021/06/17 13:28:38;;;;;;;2.28;2.08;;;;;;;;;;4939540;29;20052;-91
2021/06/17 13:31:06;;;;;;;2.20;2.00;;;;;;;;;;4844634;29;20045;-88
2021/06/17 13:33:32;;;;;;;3.75;2.00;;;;;;;;;;4860745;29;20037;-88
2021/06/17 13:35:58;;;;;;;2.17;1.98;;;;;;;;;;4853041;29;20053;-93
2021/06/17 13:38:24;;;;;;;3.78;2.38;;;;;;;;;;4863327;29;20034;-90
2021/06/17 13:40:52;;;;;;;4.65;2.20;;;;;;;;;;4847922;29;20314;-90
2021/06/17 13:46:21;;;;;;;3.85;2.22;;;;;;;;;;4863534;29;20142;-90
2021/06/17 13:48:49;;;;;;;4.35;2.28;;;;;;;;;;4863188;29;20091;-89
2021/06/17 13:51:15;;;;;;;4.07;2.33;;;;;;;;;;4848047;29;20029;-90
2021/06/17 13:53:41;;;;;;;5.22;2.67;;;;;;;;;;4866289;29;20041;-91
2021/06/17 13:56:09;;;;;;;3.35;2.33;;;;;;;;;;4866937;29;20044;-90
2021/06/17 13:58:35;;;;;;;6.53;2.08;;;;;;;;;;4866620;29;20029;-90
2021/06/17 14:01:02;;;;;;;7.43;2.30;;;;;;;;;;4866480;29;20049;-90
2021/06/17 14:03:29;;;;;;;6.03;2.40;;;;;;;;;;4870425;29;20048;-90
2021/06/17 14:05:55;;;;;;;6.88;2.38;;;;;;;;;;4884978;29;20040;-88
2021/06/17 14:08:22;;;;;;;3.95;2.17;;;;;;;;;;4919496;29;20042;-88
2021/06/17 14:10:48;;;;;;;4.53;2.35;;;;;;;;;;4924223;29;20020;-88
2021/06/17 14:13:14;;;;;;;5.78;2.30;;;;;;;;;;4923583;29;20390;-90
2021/06/17 14:15:41;;;;;;;2.75;2.30;;;;;;;;;;4924099;29;20108;-89
2021/06/17 14:18:10;;;;;;;4.25;2.65;;;;;;;;;;4924248;29;20035;-89
2021/06/17 14:20:39;;;;;;;4.65;2.38;;;;;;;;;;4922952;29;20039;-90
2021/06/17 14:23:05;;;;;;;5.82;2.42;;;;;;;;;;4924088;29;20027;-88
2021/06/17 14:25:31;;;;;;;6.32;2.50;;;;;;;;;;4923182;29;20020;-88
2021/06/17 14:27:57;;;;;;;5.57;2.65;;;;;;;;;;4924254;29;20032;-89
2021/06/17 14:30:24;;;;;;;6.93;2.70;;;;;;;;;;4923054;29;20032;-89
2021/06/17 14:32:50;;;;;;;5.05;2.38;;;;;;;;;;4924244;29;20024;-91
2021/06/17 14:35:17;;;;;;;8.05;2.67;;;;;;;;;;4922567;29;20442;-89
2021/06/17 14:37:43;;;;;;;3.60;2.60;;;;;;;;;;4922792;29;20076;-89
2021/06/17 14:40:10;;;;;;;4.55;2.40;;;;;;;;;;4923642;29;20032;-89
2021/06/17 14:42:36;;;;;;;4.35;2.40;;;;;;;;;;4923562;29;20047;-90
2021/06/17 14:45:03;;;;;;;4.95;2.67;;;;;;;;;;4922694;29;20093;-89
2021/06/17 14:47:29;;;;;;;5.57;2.42;;;;;;;;;;4922384;29;20036;-90
2021/06/17 14:49:55;;;;;;;5.93;2.67;;;;;;;;;;4923307;29;20111;-87
2021/06/17 14:52:21;;;;;;;5.18;2.40;;;;;;;;;;4923394;29;20031;-90
2021/06/17 14:54:47;;;;;;;6.70;3.08;;;;;;;;;;4923415;29;20337;-90
2021/06/17 14:57:14;;;;;;;9.63;2.90;;;;;;;;;;4923366;29;20031;-89
2021/06/17 14:59:40;;;;;;;3.50;2.20;;;;;;;;;;4923238;29;20024;-89
2021/06/17 15:02:06;;;;;;;6.35;2.25;;;;;;;;;;4923731;29;20530;-85
2021/06/17 15:04:32;;;;;;;9.68;5.22;;;;;;;;;;4922288;29;20095;-89
2021/06/17 15:06:58;;;;;;;3.63;2.30;;;;;;;;;;4922937;29;20032;-89
2021/06/17 15:09:24;;;;;;;3.72;2.92;;;;;;;;;;4906402;29;20080;-89
2021/06/17 15:11:51;;;;;;;4.65;3.03;;;;;;;;;;4923165;29;20020;-88
2021/06/17 15:14:17;;;;;;;4.82;2.60;;;;;;;;;;4922963;29;20030;-89
2021/06/17 15:16:44;;;;;;;5.85;2.30;;;;;;;;;;4906512;29;20387;-88
2021/06/17 15:19:10;;;;;;;6.60;3.60;;;;;;;;;;4922910;29;20415;-89
2021/06/17 15:21:36;;;;;;;10.23;4.28;;;;;;;;;;4922945;29;20028;-89
2021/06/17 15:24:03;;;;;;;7.40;4.00;;;;;;;;;;4922787;29;20036;-89
2021/06/17 15:26:29;;;;;;;5.10;3.83;;;;;;;;;;4922874;29;20031;-88
2021/06/17 15:28:55;;;;;;;5.03;4.22;;;;;;;;;;4922770;29;20059;-89
2021/06/17 15:31:21;;;;;;;5.25;4.05;;;;;;;;;;4922668;29;20024;-89
2021/06/17 15:33:47;;;;;;;11.13;4.95;;;;;;;;;;4922723;29;20067;-88